Time;durP1;ratioP1;P1;durP2;ratioP2;P2;SDS_P1;SDS_P2;PMS_P1;PMS_P2;Temp;Humidity;BMP_temperature;BMP_pressure;BME280_temperature;BME280_humidity;BME280_pressure;Samples;Min_cycle;Max_cycle;Signal;HPM_P1;HPM_P2
2022/02/27 00:00:52;;;;;;;77.27;29.90;;;2.20;99.90;;;;;;5052209;28;36529;-77
2022/02/27 00:03:18;;;;;;;66.37;28.33;;;2.20;99.90;;;;;;5065398;28;38184;-76
2022/02/27 00:05:44;;;;;;;65.37;28.63;;;2.10;99.90;;;;;;5058501;28;39985;-77
2022/02/27 00:08:10;;;;;;;58.67;26.47;;;2.10;99.90;;;;;;5063208;28;40041;-76
2022/02/27 00:10:36;;;;;;;65.27;29.20;;;2.10;99.90;;;;;;5063212;28;39374;-77
2022/02/27 00:13:02;;;;;;;80.97;32.07;;;2.10;99.90;;;;;;5061364;28;38078;-76
2022/02/27 00:15:28;;;;;;;75.33;30.57;;;2.10;99.90;;;;;;5063289;28;39304;-77
2022/02/27 00:17:54;;;;;;;73.83;30.53;;;2.10;99.90;;;;;;5058805;28;38751;-76
2022/02/27 00:20:20;;;;;;;67.63;27.77;;;2.10;99.90;;;;;;5063422;28;38110;-77
2022/02/27 00:22:47;;;;;;;75.53;30.30;;;2.10;99.90;;;;;;5063643;28;36479;-76
2022/02/27 00:25:14;;;;;;;70.97;28.93;;;2.10;99.90;;;;;;5069360;28;41082;-76
2022/02/27 00:27:40;;;;;;;75.23;28.13;;;2.10;99.90;;;;;;5057826;28;40018;-77
2022/02/27 00:30:08;;;;;;;60.63;28.53;;;2.10;99.90;;;;;;5067908;28;38525;-77
2022/02/27 00:32:36;;;;;;;64.70;27.23;;;2.00;99.90;;;;;;5064821;28;36844;-79
2022/02/27 00:35:02;;;;;;;73.40;28.50;;;1.90;99.90;;;;;;5064203;28;37655;-79
2022/02/27 00:37:28;;;;;;;66.63;26.77;;;2.00;99.90;;;;;;5052848;28;38514;-77
2022/02/27 00:39:54;;;;;;;64.00;26.47;;;1.90;99.90;;;;;;5053860;28;40038;-76
2022/02/27 00:42:21;;;;;;;67.67;28.43;;;1.90;99.90;;;;;;5060297;28;38821;-77
2022/02/27 00:44:47;;;;;;;68.20;28.77;;;2.00;99.90;;;;;;5061534;28;38857;-79
2022/02/27 00:47:13;;;;;;;64.07;26.87;;;1.90;99.90;;;;;;5059822;28;37634;-80
2022/02/27 00:49:39;;;;;;;75.53;29.30;;;2.00;99.90;;;;;;5066982;28;38668;-79
2022/02/27 00:52:05;;;;;;;71.17;28.40;;;1.90;99.90;;;;;;5055661;28;37787;-79
2022/02/27 00:54:31;;;;;;;74.17;28.97;;;1.90;99.90;;;;;;5054237;28;38969;-76
2022/02/27 00:56:58;;;;;;;77.00;29.70;;;1.90;99.90;;;;;;5060213;28;38429;-76
2022/02/27 00:59:24;;;;;;;72.20;28.83;;;1.90;99.90;;;;;;5054201;28;38691;-76
2022/02/27 01:01:50;;;;;;;54.97;25.33;;;1.80;99.90;;;;;;5058293;28;37404;-76
2022/02/27 01:04:16;;;;;;;61.73;26.10;;;1.80;99.90;;;;;;5059784;28;38705;-78
2022/02/27 01:06:42;;;;;;;65.13;28.47;;;1.70;99.90;;;;;;5051561;28;38852;-78
2022/02/27 01:09:08;;;;;;;79.20;30.17;;;1.70;99.90;;;;;;5048393;28;39488;-78
2022/02/27 01:11:34;;;;;;;67.67;27.90;;;1.70;99.90;;;;;;5059018;28;37086;-78
2022/02/27 01:14:02;;;;;;;66.00;27.40;;;1.70;99.90;;;;;;5058211;28;39772;-79
2022/02/27 01:16:30;;;;;;;66.43;29.10;;;1.70;99.90;;;;;;5060252;28;47757;-79
2022/02/27 01:18:56;;;;;;;72.27;27.10;;;1.70;99.90;;;;;;5067926;28;38629;-79
2022/02/27 01:21:22;;;;;;;60.90;26.00;;;1.70;99.90;;;;;;5063234;28;38389;-79
2022/02/27 01:23:48;;;;;;;67.80;28.33;;;1.60;99.90;;;;;;5066158;28;38643;-78
2022/02/27 01:26:15;;;;;;;61.10;24.93;;;1.60;99.90;;;;;;5063687;28;39541;-79
2022/02/27 01:28:41;;;;;;;62.37;25.90;;;1.60;99.90;;;;;;5059999;28;38162;-79
2022/02/27 01:31:07;;;;;;;59.10;26.63;;;1.50;99.90;;;;;;5060176;28;39190;-78
2022/02/27 01:33:35;;;;;;;55.83;23.53;;;1.50;99.90;;;;;;5065736;28;38302;-78
2022/02/27 01:36:02;;;;;;;65.60;25.23;;;1.60;99.90;;;;;;5063664;28;40496;-78
2022/02/27 01:38:28;;;;;;;61.63;24.83;;;1.50;99.90;;;;;;5061494;28;47223;-79
2022/02/27 01:40:54;;;;;;;53.93;23.80;;;1.40;99.90;;;;;;5058810;28;37369;-78
2022/02/27 01:43:20;;;;;;;51.20;23.70;;;1.40;99.90;;;;;;5063294;28;38693;-79
2022/02/27 01:45:50;;;;;;;65.03;24.67;;;1.50;99.90;;;;;;5062818;28;37828;-78
2022/02/27 01:48:16;;;;;;;50.83;22.30;;;1.50;99.90;;;;;;5060691;28;38041;-78
2022/02/27 01:50:42;;;;;;;52.67;23.33;;;1.50;99.90;;;;;;5064478;28;37471;-78
2022/02/27 01:53:08;;;;;;;57.97;23.60;;;1.50;99.90;;;;;;5060857;28;39584;-78
2022/02/27 01:55:34;;;;;;;57.60;23.87;;;1.50;99.90;;;;;;5060117;28;39111;-79
2022/02/27 01:58:01;;;;;;;54.40;21.57;;;1.50;99.90;;;;;;5056434;28;38904;-78
2022/02/27 02:00:27;;;;;;;59.10;21.47;;;1.60;99.90;;;;;;5063251;28;37136;-79
2022/02/27 02:02:53;;;;;;;59.80;23.20;;;1.60;99.90;;;;;;5064178;28;38887;-78
2022/02/27 02:05:19;;;;;;;54.23;21.40;;;1.60;99.90;;;;;;5060505;28;37696;-79
2022/02/27 02:07:46;;;;;;;54.17;21.53;;;1.50;99.90;;;;;;5057927;28;38442;-76
2022/02/27 02:10:12;;;;;;;61.93;22.80;;;1.40;99.90;;;;;;5062398;28;38294;-79
2022/02/27 02:12:38;;;;;;;54.20;22.43;;;1.40;99.90;;;;;;5064243;28;39487;-79
2022/02/27 02:15:05;;;;;;;52.50;20.23;;;1.40;99.90;;;;;;5064326;28;39325;-79
2022/02/27 02:17:32;;;;;;;46.93;21.73;;;1.30;99.90;;;;;;5060980;28;38761;-79
2022/02/27 02:19:58;;;;;;;50.00;20.37;;;1.30;99.90;;;;;;5061430;28;38568;-79
2022/02/27 02:22:24;;;;;;;53.73;21.10;;;1.30;99.90;;;;;;5067034;28;39642;-80
2022/02/27 02:24:50;;;;;;;50.80;21.40;;;1.20;99.90;;;;;;5066731;28;39030;-79
2022/02/27 02:27:16;;;;;;;57.67;22.37;;;1.10;99.90;;;;;;5061946;28;39433;-79
2022/02/27 02:29:42;;;;;;;48.03;19.70;;;1.10;99.90;;;;;;5063715;28;37549;-79
2022/02/27 02:32:08;;;;;;;48.80;18.83;;;0.90;99.90;;;;;;5064227;28;39756;-78
2022/02/27 02:34:35;;;;;;;40.40;19.00;;;0.80;99.90;;;;;;5062013;28;39584;-78
2022/02/27 02:37:01;;;;;;;54.07;20.30;;;0.90;99.90;;;;;;5062922;28;37314;-78
2022/02/27 02:39:28;;;;;;;49.47;19.67;;;0.90;99.90;;;;;;5065308;28;46759;-78
2022/02/27 02:41:56;;;;;;;40.73;17.27;;;0.80;99.90;;;;;;5058072;28;39742;-78
2022/02/27 02:44:22;;;;;;;47.67;20.43;;;0.80;99.90;;;;;;5063995;28;38460;-78
2022/02/27 02:46:48;;;;;;;43.23;16.60;;;0.80;99.90;;;;;;5061453;28;38479;-79
2022/02/27 02:49:15;;;;;;;43.93;17.80;;;0.80;99.90;;;;;;5064633;28;36104;-78
2022/02/27 02:51:42;;;;;;;47.60;19.57;;;0.80;99.90;;;;;;5063834;28;38386;-78
2022/02/27 02:54:09;;;;;;;48.93;18.87;;;0.70;99.90;;;;;;5058588;28;39567;-79
2022/02/27 02:56:36;;;;;;;47.47;18.83;;;0.70;99.90;;;;;;5061729;28;39423;-79
2022/02/27 02:59:03;;;;;;;47.20;17.90;;;0.50;99.90;;;;;;5059677;28;36557;-77
2022/02/27 03:01:30;;;;;;;48.97;18.67;;;0.40;99.90;;;;;;5074001;28;39237;-78
2022/02/27 03:03:56;;;;;;;47.33;17.17;;;0.30;99.90;;;;;;5062668;28;38094;-78
2022/02/27 03:06:23;;;;;;;39.10;17.17;;;0.20;99.90;;;;;;5061786;28;38194;-80
2022/02/27 03:08:50;;;;;;;43.63;17.03;;;0.20;99.90;;;;;;5065174;28;36244;-78
2022/02/27 03:11:21;;;;;;;44.37;18.70;;;0.10;99.90;;;;;;5066389;28;38834;-79
2022/02/27 03:13:48;;;;;;;42.73;18.83;;;0.10;99.90;;;;;;5062650;28;38646;-79
2022/02/27 03:16:15;;;;;;;40.80;17.47;;;0.10;99.90;;;;;;5056084;28;37946;-79
2022/02/27 03:18:42;;;;;;;49.53;18.90;;;0.20;99.90;;;;;;5064473;28;38204;-78
2022/02/27 03:21:09;;;;;;;46.43;18.80;;;0.30;99.90;;;;;;5061147;28;39299;-78
2022/02/27 03:23:35;;;;;;;54.80;18.13;;;0.40;99.90;;;;;;5064686;28;39498;-78
2022/02/27 03:26:02;;;;;;;45.50;17.57;;;0.60;99.90;;;;;;5061600;28;39920;-77
2022/02/27 03:28:28;;;;;;;52.27;18.90;;;0.60;99.90;;;;;;5067049;28;37702;-78
2022/02/27 03:30:55;;;;;;;44.23;18.47;;;0.60;99.90;;;;;;5075382;28;40013;-78
2022/02/27 03:33:21;;;;;;;39.83;16.87;;;0.70;99.90;;;;;;5066584;28;39734;-79
2022/02/27 03:35:47;;;;;;;40.27;17.20;;;0.60;99.90;;;;;;5052811;28;38456;-79
2022/02/27 03:38:13;;;;;;;48.23;16.50;;;0.60;99.90;;;;;;5061771;28;37885;-79
2022/02/27 03:40:39;;;;;;;43.10;17.73;;;0.60;99.90;;;;;;5074266;28;39955;-78
2022/02/27 03:43:05;;;;;;;37.17;17.43;;;0.60;99.90;;;;;;5074165;28;37510;-78
2022/02/27 03:45:32;;;;;;;45.10;17.53;;;0.70;99.90;;;;;;5075001;28;38901;-78
2022/02/27 03:47:58;;;;;;;48.73;17.03;;;0.70;99.90;;;;;;5063086;28;36177;-78
2022/02/27 03:50:24;;;;;;;46.23;18.63;;;0.60;99.90;;;;;;5072533;28;38873;-78
2022/02/27 03:52:50;;;;;;;42.03;16.97;;;0.50;99.90;;;;;;5075354;28;38276;-78
2022/02/27 03:55:17;;;;;;;41.90;18.07;;;0.50;99.90;;;;;;5069713;28;39417;-79
2022/02/27 03:57:44;;;;;;;42.43;17.40;;;0.40;99.90;;;;;;5064969;28;39041;-79
2022/02/27 04:00:13;;;;;;;37.70;16.23;;;0.40;99.90;;;;;;5062784;28;39003;-79
2022/02/27 04:02:40;;;;;;;44.77;18.40;;;0.40;99.90;;;;;;5060613;28;39431;-78
2022/02/27 04:05:06;;;;;;;31.53;15.03;;;0.40;99.90;;;;;;5054085;28;38647;-79
2022/02/27 04:07:33;;;;;;;36.70;14.50;;;0.30;99.90;;;;;;5061433;28;37291;-78
2022/02/27 04:09:59;;;;;;;38.53;15.60;;;0.30;99.90;;;;;;5062173;28;38201;-79
2022/02/27 04:12:25;;;;;;;34.57;14.97;;;0.20;99.90;;;;;;5060829;28;40608;-79
2022/02/27 04:14:51;;;;;;;42.30;16.43;;;0.20;99.90;;;;;;5064576;28;39129;-78
2022/02/27 04:17:17;;;;;;;36.17;14.33;;;0.10;99.90;;;;;;5062959;28;37886;-78
2022/02/27 04:19:43;;;;;;;35.27;14.27;;;0.10;99.90;;;;;;5063304;28;38931;-79
2022/02/27 04:22:09;;;;;;;38.70;14.87;;;0.00;99.90;;;;;;5061270;28;38649;-78
2022/02/27 04:24:35;;;;;;;37.13;14.53;;;-0.10;99.90;;;;;;5058042;28;36457;-78
2022/02/27 04:27:01;;;;;;;35.67;14.53;;;-0.10;99.90;;;;;;5062661;28;37853;-78
2022/02/27 04:29:27;;;;;;;28.27;13.70;;;-0.20;99.90;;;;;;5064022;28;40825;-78
2022/02/27 04:31:53;;;;;;;35.43;13.70;;;-0.10;99.90;;;;;;5060181;28;38259;-78
2022/02/27 04:34:20;;;;;;;31.47;15.97;;;-0.10;99.90;;;;;;5060717;28;37055;-78
2022/02/27 04:36:46;;;;;;;39.33;14.43;;;-0.10;99.90;;;;;;5063665;28;36228;-78
2022/02/27 04:39:12;;;;;;;27.37;13.20;;;-0.20;99.90;;;;;;5066738;28;39359;-78
2022/02/27 04:41:40;;;;;;;34.43;14.70;;;-0.10;99.90;;;;;;5065895;28;37685;-78
2022/02/27 04:44:07;;;;;;;39.93;13.80;;;-0.20;99.90;;;;;;5063479;28;38468;-78
2022/02/27 04:46:33;;;;;;;32.97;12.97;;;-0.20;99.90;;;;;;5063476;28;41579;-78
2022/02/27 04:48:59;;;;;;;28.53;12.53;;;-0.10;99.90;;;;;;5065622;28;39625;-78
2022/02/27 04:51:25;;;;;;;31.37;13.43;;;-0.10;99.90;;;;;;5064087;28;37509;-78
2022/02/27 04:53:51;;;;;;;32.43;12.93;;;-0.10;99.90;;;;;;5068319;28;38798;-78
2022/02/27 04:56:17;;;;;;;24.13;12.07;;;0.00;99.90;;;;;;5064000;28;36915;-78
2022/02/27 04:58:43;;;;;;;36.13;14.30;;;0.10;99.90;;;;;;5065634;28;39492;-79
2022/02/27 05:01:10;;;;;;;28.77;12.17;;;0.10;99.90;;;;;;5063239;28;39338;-78
2022/02/27 05:03:36;;;;;;;33.47;13.20;;;0.20;99.90;;;;;;5064694;28;38265;-79
2022/02/27 05:06:02;;;;;;;32.00;14.10;;;0.10;99.90;;;;;;5064240;28;37824;-78
2022/02/27 05:08:28;;;;;;;27.97;12.30;;;0.20;99.90;;;;;;5061826;28;37418;-79
2022/02/27 05:10:54;;;;;;;31.47;12.60;;;0.20;99.90;;;;;;5059748;28;41916;-78
2022/02/27 05:13:20;;;;;;;30.57;10.93;;;0.20;99.90;;;;;;5067722;28;39317;-78
2022/02/27 05:15:46;;;;;;;27.30;11.87;;;0.20;99.90;;;;;;5062741;28;35840;-78
2022/02/27 05:18:12;;;;;;;27.83;12.47;;;0.30;99.90;;;;;;5073799;28;39021;-78
2022/02/27 05:20:38;;;;;;;31.70;11.50;;;0.40;99.90;;;;;;5073861;28;39471;-78
2022/02/27 05:23:05;;;;;;;31.03;11.80;;;0.50;99.90;;;;;;5070891;28;39781;-78
2022/02/27 05:25:31;;;;;;;28.53;12.13;;;0.50;99.90;;;;;;5072116;28;37167;-78
2022/02/27 05:27:57;;;;;;;30.57;11.27;;;0.60;99.90;;;;;;5072812;28;38638;-78
2022/02/27 05:30:24;;;;;;;36.00;12.73;;;0.60;99.90;;;;;;5069546;28;37579;-78
2022/02/27 05:32:51;;;;;;;32.80;11.93;;;0.60;99.90;;;;;;5068457;28;37832;-78
2022/02/27 05:35:17;;;;;;;31.43;12.63;;;0.50;99.90;;;;;;5075148;28;37775;-79
2022/02/27 05:37:44;;;;;;;26.37;10.77;;;0.40;99.90;;;;;;5073998;28;38577;-78
2022/02/27 05:40:10;;;;;;;28.27;10.57;;;0.40;99.90;;;;;;5074820;28;38893;-78
2022/02/27 05:42:37;;;;;;;31.17;12.47;;;0.40;99.90;;;;;;5075834;28;39692;-78
2022/02/27 05:45:05;;;;;;;29.20;12.23;;;0.40;99.90;;;;;;5072579;28;38341;-77
2022/02/27 05:47:31;;;;;;;28.17;11.07;;;0.30;99.90;;;;;;5077541;28;38424;-78
2022/02/27 05:49:58;;;;;;;23.60;10.43;;;0.30;99.90;;;;;;5071558;28;38959;-78
2022/02/27 05:52:24;;;;;;;34.47;10.90;;;0.10;99.90;;;;;;5071753;28;38999;-78
2022/02/27 05:54:50;;;;;;;27.33;10.73;;;0.10;99.90;;;;;;5070354;28;35888;-78
2022/02/27 05:57:16;;;;;;;28.53;11.10;;;0.00;99.90;;;;;;5066379;28;39399;-78
2022/02/27 05:59:42;;;;;;;32.43;11.10;;;-0.10;99.90;;;;;;5075738;28;39133;-78
2022/02/27 06:02:09;;;;;;;24.93;10.27;;;-0.10;99.90;;;;;;5072462;28;39698;-78
2022/02/27 06:04:35;;;;;;;29.47;10.93;;;0.00;99.90;;;;;;5070397;28;37356;-78
2022/02/27 06:07:01;;;;;;;30.83;10.93;;;0.00;99.90;;;;;;5071805;28;39039;-78
2022/02/27 06:09:28;;;;;;;23.87;10.40;;;0.10;99.90;;;;;;5048391;28;39483;-78
2022/02/27 06:11:54;;;;;;;19.43;10.00;;;0.20;99.90;;;;;;5080117;28;38718;-78
2022/02/27 06:14:20;;;;;;;19.63;9.93;;;0.10;99.90;;;;;;5055496;28;37957;-78
2022/02/27 06:16:46;;;;;;;24.73;11.37;;;0.10;99.90;;;;;;5053040;28;39256;-78
2022/02/27 06:19:12;;;;;;;25.27;10.10;;;0.10;99.90;;;;;;5066646;28;40939;-78
2022/02/27 06:21:38;;;;;;;19.87;10.63;;;0.30;99.90;;;;;;5070894;28;38993;-78
2022/02/27 06:24:05;;;;;;;21.67;10.07;;;0.40;99.90;;;;;;5074356;28;39886;-78
2022/02/27 06:26:32;;;;;;;23.37;10.30;;;0.40;99.90;;;;;;5077288;28;40191;-78
2022/02/27 06:29:02;;;;;;;22.90;9.77;;;0.30;99.90;;;;;;5054105;28;38958;-78
2022/02/27 06:31:29;;;;;;;31.17;11.77;;;0.40;99.90;;;;;;5070195;28;48778;-79
2022/02/27 06:33:56;;;;;;;36.70;12.00;;;0.30;99.90;;;;;;5076817;28;37078;-78
2022/02/27 06:36:22;;;;;;;24.77;10.87;;;0.20;99.90;;;;;;5058179;28;37708;-78
2022/02/27 06:38:48;;;;;;;24.23;10.07;;;0.20;99.90;;;;;;5050524;28;39042;-78
2022/02/27 06:41:15;;;;;;;22.40;10.77;;;0.30;99.90;;;;;;5066497;28;39135;-77
2022/02/27 06:43:42;;;;;;;25.93;12.20;;;0.30;99.90;;;;;;5053067;28;38259;-79
2022/02/27 06:46:08;;;;;;;22.70;11.13;;;0.40;99.90;;;;;;5067430;28;38703;-78
2022/02/27 06:48:35;;;;;;;16.73;9.60;;;0.30;99.90;;;;;;5056867;28;37724;-78
2022/02/27 06:51:01;;;;;;;28.00;10.63;;;0.30;99.90;;;;;;5056473;28;40281;-78
2022/02/27 06:53:27;;;;;;;22.33;10.83;;;0.20;99.90;;;;;;5049891;28;47277;-78
2022/02/27 06:55:53;;;;;;;18.53;9.63;;;0.40;99.90;;;;;;5053750;28;39139;-78
2022/02/27 06:58:19;;;;;;;24.13;11.23;;;0.40;99.90;;;;;;5070590;28;38946;-78
2022/02/27 07:00:46;;;;;;;23.77;10.30;;;0.40;99.90;;;;;;5056082;28;37594;-78
2022/02/27 07:03:13;;;;;;;24.13;10.37;;;0.50;99.90;;;;;;5074932;28;37095;-78
2022/02/27 07:05:39;;;;;;;30.80;11.67;;;0.50;99.90;;;;;;5072384;28;40446;-79
2022/02/27 07:08:06;;;;;;;25.20;11.23;;;0.50;99.90;;;;;;5073141;28;39558;-78
2022/02/27 07:10:33;;;;;;;29.93;10.07;;;0.50;99.90;;;;;;5070820;28;38714;-78
2022/02/27 07:12:59;;;;;;;22.87;9.97;;;0.40;99.90;;;;;;5073684;28;37427;-78
2022/02/27 07:15:25;;;;;;;23.73;10.53;;;0.50;99.90;;;;;;5074070;28;39121;-79
2022/02/27 07:17:51;;;;;;;22.73;9.50;;;0.50;99.90;;;;;;5078084;28;37425;-78
2022/02/27 07:20:17;;;;;;;21.17;8.93;;;0.70;99.90;;;;;;5075353;28;39460;-78
2022/02/27 07:22:44;;;;;;;21.77;9.37;;;0.80;99.90;;;;;;5071569;28;36945;-78
2022/02/27 07:25:10;;;;;;;21.63;9.30;;;0.90;99.90;;;;;;5072915;28;38809;-78
2022/02/27 07:27:36;;;;;;;29.93;10.23;;;1.00;99.90;;;;;;5065861;28;37718;-78
2022/02/27 07:30:04;;;;;;;20.50;8.23;;;1.10;99.90;;;;;;5074246;28;38484;-78
2022/02/27 07:32:31;;;;;;;20.97;8.27;;;1.10;99.90;;;;;;5088189;28;37814;-78
2022/02/27 07:34:58;;;;;;;22.77;8.00;;;1.30;99.90;;;;;;5078657;28;39272;-78
2022/02/27 07:37:24;;;;;;;26.10;8.57;;;1.40;99.90;;;;;;5075211;28;39338;-78
2022/02/27 07:39:50;;;;;;;18.87;9.27;;;1.40;99.90;;;;;;5073077;28;39493;-78
2022/02/27 07:42:17;;;;;;;22.30;8.53;;;1.50;99.90;;;;;;5075082;28;37392;-78
2022/02/27 07:44:43;;;;;;;20.57;8.40;;;1.60;99.90;;;;;;5067900;28;39649;-78
2022/02/27 07:47:09;;;;;;;20.33;8.30;;;1.70;99.90;;;;;;5067700;28;39179;-78
2022/02/27 07:49:35;;;;;;;26.93;7.63;;;1.70;99.90;;;;;;5070956;28;39004;-78
2022/02/27 07:52:01;;;;;;;17.77;6.73;;;1.80;99.90;;;;;;5064566;28;35701;-78
2022/02/27 07:54:27;;;;;;;20.07;7.10;;;2.00;99.90;;;;;;5060387;28;39201;-78
2022/02/27 07:56:54;;;;;;;23.73;7.50;;;2.10;99.90;;;;;;5062333;28;38998;-79
2022/02/27 07:59:20;;;;;;;16.77;6.73;;;2.10;99.90;;;;;;5065710;28;39859;-79
2022/02/27 08:01:47;;;;;;;19.40;6.53;;;2.20;99.90;;;;;;5067009;28;36110;-78
2022/02/27 08:04:13;;;;;;;14.47;6.87;;;2.40;99.90;;;;;;5073132;28;38761;-79
2022/02/27 08:06:40;;;;;;;16.77;6.47;;;2.30;99.90;;;;;;5075482;28;39464;-78
2022/02/27 08:09:06;;;;;;;22.07;7.47;;;2.40;99.90;;;;;;5073217;28;39943;-77
2022/02/27 08:11:33;;;;;;;17.50;6.17;;;2.50;99.90;;;;;;5060327;28;37856;-79
2022/02/27 08:14:00;;;;;;;21.50;6.10;;;2.60;99.90;;;;;;5061773;28;38845;-78
2022/02/27 08:16:26;;;;;;;15.80;7.07;;;2.70;99.90;;;;;;5060656;28;39102;-78
2022/02/27 08:18:53;;;;;;;15.53;5.70;;;2.70;99.90;;;;;;5060830;28;38949;-78
2022/02/27 08:21:19;;;;;;;15.73;6.30;;;2.80;99.90;;;;;;5052258;28;38045;-78
2022/02/27 08:23:45;;;;;;;23.27;5.90;;;2.90;99.90;;;;;;5058037;28;39163;-78
2022/02/27 08:26:11;;;;;;;21.63;6.57;;;3.00;99.90;;;;;;5053295;28;38873;-78
2022/02/27 08:28:37;;;;;;;17.83;5.37;;;3.00;99.90;;;;;;5062273;28;39800;-79
2022/02/27 08:31:04;;;;;;;15.17;5.57;;;3.10;99.90;;;;;;5054432;28;37612;-79
2022/02/27 08:33:30;;;;;;;14.50;5.13;;;3.20;99.90;;;;;;5052044;28;38946;-76
2022/02/27 08:35:56;;;;;;;19.27;5.67;;;3.30;99.90;;;;;;5056988;28;39769;-76
2022/02/27 08:38:23;;;;;;;14.50;5.03;;;3.30;99.90;;;;;;5059512;28;39739;-76
2022/02/27 08:40:51;;;;;;;16.73;5.17;;;3.50;99.90;;;;;;5063764;28;37733;-75
2022/02/27 08:43:17;;;;;;;13.67;5.40;;;3.60;99.90;;;;;;5065348;28;38795;-76
2022/02/27 08:45:43;;;;;;;15.60;5.33;;;3.60;99.90;;;;;;5056943;28;37667;-76
2022/02/27 08:48:10;;;;;;;20.47;5.40;;;3.60;99.90;;;;;;5063698;28;38827;-76
2022/02/27 08:50:36;;;;;;;14.60;5.50;;;3.60;99.90;;;;;;5057686;28;37312;-78
2022/02/27 08:53:02;;;;;;;15.17;5.50;;;3.70;99.90;;;;;;5061209;28;39314;-76
2022/02/27 08:55:29;;;;;;;18.27;5.20;;;3.90;99.90;;;;;;5057564;28;38038;-76
2022/02/27 08:57:56;;;;;;;17.00;5.93;;;3.90;99.90;;;;;;5056915;28;39145;-77
2022/02/27 09:00:22;;;;;;;19.30;6.03;;;3.90;99.90;;;;;;5052114;28;38978;-76
2022/02/27 09:02:48;;;;;;;14.73;5.27;;;4.00;99.90;;;;;;5057254;28;38587;-76
2022/02/27 09:05:15;;;;;;;17.07;5.10;;;4.00;99.90;;;;;;5055375;28;39526;-76
2022/02/27 09:07:41;;;;;;;12.00;5.60;;;4.10;99.90;;;;;;5061774;28;37540;-75
2022/02/27 09:10:12;;;;;;;12.07;5.13;;;4.30;99.90;;;;;;5057945;28;37896;-78
2022/02/27 09:12:45;;;;;;;16.47;5.27;;;4.30;99.90;;;;;;5060084;28;40237;-76
2022/02/27 09:15:12;;;;;;;12.67;4.50;;;4.30;99.90;;;;;;5062290;28;39141;-75
2022/02/27 09:17:39;;;;;;;11.93;4.80;;;4.40;99.90;;;;;;5057295;28;37994;-77
2022/02/27 09:20:07;;;;;;;16.00;5.13;;;4.50;99.90;;;;;;5060833;28;35888;-76
2022/02/27 09:22:33;;;;;;;13.87;4.70;;;4.60;99.90;;;;;;5064486;28;38486;-77
2022/02/27 09:24:59;;;;;;;13.07;4.70;;;4.70;99.90;;;;;;5060037;28;39390;-76
2022/02/27 09:27:25;;;;;;;13.83;4.70;;;4.70;99.90;;;;;;5064526;28;39205;-78
2022/02/27 09:29:52;;;;;;;9.80;4.40;;;4.80;99.90;;;;;;5057334;28;36641;-78
2022/02/27 09:32:18;;;;;;;21.20;6.93;;;4.90;99.90;;;;;;5061587;28;39429;-76
2022/02/27 09:34:44;;;;;;;18.03;4.73;;;4.90;99.90;;;;;;5059013;28;39063;-77
2022/02/27 09:37:10;;;;;;;10.20;4.37;;;5.10;99.90;;;;;;5068955;28;38777;-76
2022/02/27 09:39:37;;;;;;;19.07;4.67;;;5.10;99.90;;;;;;5057625;28;37187;-76
2022/02/27 09:42:05;;;;;;;11.87;4.80;;;5.10;99.90;;;;;;5068346;28;39280;-77
2022/02/27 09:44:40;;;;;;;10.23;4.77;;;5.20;99.90;;;;;;5064238;28;38047;-76
2022/02/27 09:47:17;;;;;;;13.37;4.50;;;5.30;99.90;;;;;;5039094;28;40243;-77
2022/02/27 09:49:46;;;;;;;13.20;3.80;;;5.30;99.90;;;;;;5044337;28;38652;-77
2022/02/27 09:52:17;;;;;;;11.97;4.07;;;5.40;99.90;;;;;;5058967;28;38962;-76
2022/02/27 09:54:44;;;;;;;14.23;4.47;;;5.40;99.90;;;;;;5064666;28;40080;-76
2022/02/27 09:57:19;;;;;;;14.37;5.07;;;5.50;99.90;;;;;;5063175;28;38531;-76
2022/02/27 09:59:45;;;;;;;10.50;3.87;;;5.60;99.90;;;;;;5063313;28;38282;-78
2022/02/27 10:02:13;;;;;;;11.93;4.67;;;5.70;99.90;;;;;;5063153;28;38769;-77
2022/02/27 10:04:40;;;;;;;9.93;3.93;;;5.70;99.90;;;;;;5045154;28;38442;-76
2022/02/27 10:07:09;;;;;;;12.37;4.13;;;5.80;99.90;;;;;;5044647;28;39874;-76
2022/02/27 10:09:36;;;;;;;7.83;4.23;;;6.00;99.90;;;;;;5060147;28;37879;-80
2022/02/27 10:12:21;;;;;;;11.17;4.50;;;6.00;99.90;;;;;;5047915;28;38297;-79
2022/02/27 10:15:05;;;;;;;8.87;3.93;;;6.10;99.90;;;;;;5073012;28;38020;-77
2022/02/27 10:17:37;;;;;;;14.20;4.10;;;6.20;99.90;;;;;;5062583;28;48807;-79
2022/02/27 10:20:09;;;;;;;9.90;3.75;;;6.20;99.90;;;;;;5045894;28;36876;-78
2022/02/27 10:22:39;;;;;;;10.23;4.30;;;6.30;99.90;;;;;;5044854;28;37833;-79
2022/02/27 10:25:11;;;;;;;13.70;4.30;;;6.40;99.90;;;;;;5062659;28;38902;-80
2022/02/27 10:27:41;;;;;;;9.07;3.20;;;6.50;99.90;;;;;;5058784;28;38544;-79
2022/02/27 10:30:18;;;;;;;7.93;3.80;;;6.50;99.90;;;;;;5067976;28;37168;-79
2022/02/27 10:32:46;;;;;;;8.93;4.03;;;6.50;99.90;;;;;;5063141;28;39160;-79
2022/02/27 10:35:42;;;;;;;8.53;3.77;;;6.50;99.90;;;;;;5059965;28;39557;-78
2022/02/27 10:41:14;;;;;;;10.47;3.50;;;6.70;99.90;;;;;;5061270;28;37281;-79
2022/02/27 10:43:43;;;;;;;7.70;3.50;;;6.80;99.90;;;;;;5062618;28;38833;-79
2022/02/27 10:46:10;;;;;;;8.30;3.50;;;6.90;99.90;;;;;;5043974;28;39330;-79
2022/02/27 10:48:36;;;;;;;8.40;3.47;;;6.90;99.90;;;;;;5049050;28;37451;-79
2022/02/27 10:51:12;;;;;;;10.43;3.57;;;6.90;99.90;;;;;;5061847;28;37006;-79
2022/02/27 10:53:41;;;;;;;10.03;3.70;;;7.10;99.90;;;;;;5067197;28;38595;-79
2022/02/27 10:56:10;;;;;;;7.73;3.33;;;7.20;99.90;;;;;;5073660;28;39389;-79
2022/02/27 10:58:44;;;;;;;7.73;3.70;;;7.20;99.90;;;;;;5045643;28;38596;-79
2022/02/27 11:01:21;;;;;;;10.30;3.70;;;7.30;99.90;;;;;;5053799;28;36679;-80
2022/02/27 11:03:49;;;;;;;5.33;3.10;;;7.30;99.90;;;;;;5044474;28;38680;-79
2022/02/27 11:06:16;;;;;;;6.80;2.87;;;7.40;99.90;;;;;;5062334;28;38458;-79
2022/02/27 11:08:42;;;;;;;6.87;2.87;;;7.50;99.90;;;;;;5061574;28;37383;-78
2022/02/27 11:11:09;;;;;;;7.63;3.17;;;7.60;99.90;;;;;;5057904;28;37195;-79
2022/02/27 11:13:36;;;;;;;9.40;2.77;;;7.70;99.90;;;;;;5060674;28;39371;-80
2022/02/27 11:16:02;;;;;;;9.93;2.83;;;7.80;99.90;;;;;;5067851;28;38924;-80
2022/02/27 11:18:29;;;;;;;5.77;2.40;;;7.90;99.90;;;;;;5060976;28;38111;-80
2022/02/27 11:20:56;;;;;;;7.33;2.80;;;7.90;99.90;;;;;;5062424;28;37945;-80
2022/02/27 11:23:24;;;;;;;6.27;2.87;;;8.00;99.90;;;;;;5067191;28;38458;-78
2022/02/27 11:25:51;;;;;;;4.53;2.03;;;8.00;99.90;;;;;;5066300;28;39523;-79
2022/02/27 11:28:23;;;;;;;8.40;2.50;;;8.10;99.90;;;;;;5061461;28;39051;-79
2022/02/27 11:30:59;;;;;;;5.45;2.42;;;8.10;99.90;;;;;;5062324;28;36134;-79
2022/02/27 11:33:25;;;;;;;6.43;2.03;;;8.20;99.90;;;;;;5056323;28;39386;-79
2022/02/27 11:35:54;;;;;;;7.93;2.40;;;8.30;99.90;;;;;;5061010;28;39347;-79
2022/02/27 11:38:30;;;;;;;4.73;2.37;;;8.50;99.90;;;;;;5061429;28;38978;-80
2022/02/27 11:41:17;;;;;;;4.77;2.53;;;8.70;99.90;;;;;;5062707;28;38147;-79
2022/02/27 11:43:53;;;;;;;7.97;2.20;;;8.40;99.90;;;;;;5058611;28;47001;-80
2022/02/27 11:46:38;;;;;;;6.47;2.40;;;8.40;99.90;;;;;;5061121;28;38108;-79
2022/02/27 11:49:17;;;;;;;4.90;2.97;;;8.60;99.90;;;;;;5058869;28;39477;-79
2022/02/27 11:52:03;;;;;;;5.37;2.20;;;8.70;99.90;;;;;;5066156;28;37842;-79
2022/02/27 11:54:44;;;;;;;4.63;2.30;;;8.80;99.90;;;;;;5063728;28;48932;-79
2022/02/27 11:57:19;;;;;;;7.87;2.40;;;8.90;99.90;;;;;;5063477;28;41245;-80
2022/02/27 11:59:56;;;;;;;6.23;2.70;;;9.00;99.90;;;;;;5061158;28;39159;-79
2022/02/27 12:02:40;;;;;;;6.33;2.73;;;9.10;99.90;;;;;;5044600;28;37429;-80
2022/02/27 12:05:17;;;;;;;8.93;2.83;;;8.90;99.90;;;;;;5036499;28;37837;-80
2022/02/27 12:07:52;;;;;;;5.70;2.30;;;8.80;99.90;;;;;;5026751;28;40432;-79
2022/02/27 12:10:39;;;;;;;3.13;2.30;;;9.00;99.90;;;;;;5029210;28;40052;-79
2022/02/27 12:13:31;;;;;;;5.63;2.53;;;9.00;99.90;;;;;;5026902;28;37254;-80
2022/02/27 12:16:07;;;;;;;5.85;2.50;;;9.20;99.90;;;;;;5038771;28;39801;-79
2022/02/27 12:18:54;;;;;;;5.03;1.90;;;9.20;99.90;;;;;;5027925;28;46692;-82
2022/02/27 12:21:37;;;;;;;6.53;2.50;;;9.20;99.90;;;;;;5020822;28;38866;-80
2022/02/27 12:24:22;;;;;;;5.75;2.10;;;9.10;99.90;;;;;;5026932;28;38486;-78
2022/02/27 12:26:51;;;;;;;7.27;3.27;;;9.20;99.90;;;;;;5040515;28;48794;-82
2022/02/27 12:29:32;;;;;;;5.53;2.33;;;9.40;99.90;;;;;;5028953;28;39276;-80
2022/02/27 12:32:08;;;;;;;7.17;2.73;;;9.30;99.90;;;;;;5019256;28;39592;-79
2022/02/27 12:34:35;;;;;;;8.20;2.40;;;9.40;99.90;;;;;;5022701;28;48066;-79
2022/02/27 12:37:05;;;;;;;6.23;2.60;;;9.40;99.90;;;;;;5037671;28;38916;-79
2022/02/27 12:39:39;;;;;;;7.23;2.60;;;9.40;99.90;;;;;;5039651;28;38756;-79
2022/02/27 12:42:07;;;;;;;4.40;2.43;;;9.30;99.90;;;;;;5023250;28;37406;-79
2022/02/27 12:44:37;;;;;;;7.30;2.90;;;9.40;99.90;;;;;;5024179;28;39054;-81
2022/02/27 12:47:06;;;;;;;6.43;2.43;;;9.40;99.90;;;;;;5043396;28;38864;-79
2022/02/27 12:52:36;;;;;;;8.03;2.53;;;9.40;99.90;;;;;;5054298;28;49171;-80